Time;durP1;ratioP1;P1;durP2;ratioP2;P2;SDS_P1;SDS_P2;PMS_P1;PMS_P2;Temp;Humidity;BMP_temperature;BMP_pressure;BME280_temperature;BME280_humidity;BME280_pressure;Samples;Min_cycle;Max_cycle;Signal;HPM_P1;HPM_P2
2021/05/09 00:00:09;;;;;;;6.53;4.60;;;;;;;6.67;88.42;98124.97;4853355;29;20068;-89
2021/05/09 00:02:35;;;;;;;10.45;6.05;;;;;;;6.57;88.36;98120.91;4866955;29;20538;-89
2021/05/09 00:05:01;;;;;;;10.65;5.60;;;;;;;6.42;89.45;98116.16;4860216;29;20449;-90
2021/05/09 00:07:27;;;;;;;11.45;5.65;;;;;;;6.32;89.93;98107.63;4860006;29;20044;-89
2021/05/09 00:09:52;;;;;;;28.90;9.50;;;;;;;6.36;89.92;98121.69;4861211;29;20033;-88
2021/05/09 00:12:18;;;;;;;37.60;17.65;;;;;;;6.31;90.23;98105.03;4854092;29;20152;-89
2021/05/09 00:14:43;;;;;;;55.00;26.02;;;;;;;6.29;90.16;98121.03;4860141;29;20120;-89
2021/05/09 00:17:09;;;;;;;29.40;13.77;;;;;;;6.07;91.33;98106.75;4851476;29;20080;-88
2021/05/09 00:19:35;;;;;;;23.27;10.80;;;;;;;6.04;91.41;98111.31;4880838;29;20036;-88
2021/05/09 00:22:00;;;;;;;18.35;9.15;;;;;;;6.08;89.55;98123.56;4857985;29;20039;-89
2021/05/09 00:24:26;;;;;;;23.15;10.98;;;;;;;6.06;90.15;98120.13;4866554;29;20024;-89
2021/05/09 00:26:52;;;;;;;26.25;11.73;;;;;;;6.02;91.26;98113.16;4861545;29;20136;-89
2021/05/09 00:29:17;;;;;;;22.75;11.13;;;;;;;6.04;91.82;98128.13;4854696;29;20036;-89
2021/05/09 00:31:45;;;;;;;26.58;9.48;;;;;;;5.95;92.48;98123.13;4892436;29;20097;-89
2021/05/09 00:34:11;;;;;;;20.48;9.20;;;;;;;5.93;92.42;98123.19;4868120;29;20025;-89
2021/05/09 00:36:37;;;;;;;20.20;7.90;;;;;;;5.87;92.36;98128.72;4853865;29;20052;-88
2021/05/09 00:39:02;;;;;;;18.35;7.15;;;;;;;5.78;92.50;98121.00;4858147;29;20138;-88
2021/05/09 00:41:28;;;;;;;18.77;8.48;;;;;;;5.83;91.49;98129.69;4850966;29;20037;-90
2021/05/09 00:43:54;;;;;;;24.60;10.02;;;;;;;5.76;91.94;98119.31;4852865;29;20037;-90
2021/05/09 00:46:19;;;;;;;21.30;9.18;;;;;;;5.80;92.01;98123.63;4880908;29;20032;-90
2021/05/09 00:48:45;;;;;;;15.32;7.85;;;;;;;5.64;92.17;98107.34;4869315;29;20076;-88
2021/05/09 00:51:11;;;;;;;14.88;6.10;;;;;;;5.65;91.96;98113.53;4857535;29;20032;-89
2021/05/09 00:53:40;;;;;;;11.30;6.00;;;;;;;5.59;91.19;98111.94;4859131;29;20039;-89
2021/05/09 00:56:06;;;;;;;9.73;4.75;;;;;;;5.56;90.65;98117.34;4874212;29;20032;-87
2021/05/09 00:58:32;;;;;;;8.18;4.53;;;;;;;5.49;90.95;98129.06;4869598;29;20453;-89
2021/05/09 01:00:59;;;;;;;16.05;4.80;;;;;;;5.46;90.86;98119.44;4859273;29;20033;-90
2021/05/09 01:03:27;;;;;;;6.80;4.53;;;;;;;5.45;90.13;98128.31;4859930;29;20044;-88
2021/05/09 01:05:56;;;;;;;9.75;4.50;;;;;;;5.42;90.39;98125.75;4879748;29;20076;-88
2021/05/09 01:08:22;;;;;;;12.73;4.55;;;;;;;5.49;90.26;98129.06;4859083;29;20029;-89
2021/05/09 01:10:49;;;;;;;6.90;4.72;;;;;;;5.42;90.68;98133.72;4863478;29;20480;-89
2021/05/09 01:13:15;;;;;;;6.85;4.60;;;;;;;5.41;90.32;98133.78;4885496;29;20123;-88
2021/05/09 01:15:42;;;;;;;9.40;4.35;;;;;;;5.35;90.88;98124.19;4861490;29;20052;-89
2021/05/09 01:18:07;;;;;;;7.40;4.55;;;;;;;5.43;91.90;98127.50;4878428;29;20077;-90
2021/05/09 01:20:34;;;;;;;10.52;4.55;;;;;;;5.42;92.14;98119.56;4862170;29;20029;-88
2021/05/09 01:23:00;;;;;;;8.30;4.60;;;;;;;5.35;92.59;98124.19;4850274;29;20524;-90
2021/05/09 01:25:26;;;;;;;9.02;4.53;;;;;;;5.39;92.59;98127.63;4857890;29;20021;-90
2021/05/09 01:27:52;;;;;;;9.68;5.20;;;;;;;5.36;92.79;98107.38;4865221;29;20044;-90
2021/05/09 01:30:18;;;;;;;12.82;5.25;;;;;;;5.42;92.85;98123.09;4861382;29;20511;-89
2021/05/09 01:32:43;;;;;;;11.80;5.38;;;;;;;5.28;92.78;98104.13;4863908;29;20031;-89
2021/05/09 01:35:10;;;;;;;8.60;5.10;;;;;;;5.33;92.79;98120.72;4858627;29;20036;-89
2021/05/09 01:37:36;;;;;;;11.30;5.75;;;;;;;5.32;94.26;98134.06;4854305;29;20076;-89
2021/05/09 01:40:02;;;;;;;14.57;6.18;;;;;;;5.17;95.11;98121.28;4860186;29;20056;-90
2021/05/09 01:42:28;;;;;;;10.40;5.43;;;;;;;5.15;95.52;98129.28;4850844;29;20033;-90
2021/05/09 01:44:56;;;;;;;10.55;5.43;;;;;;;5.04;95.27;98120.81;4851083;29;20032;-90
2021/05/09 01:47:22;;;;;;;7.38;4.70;;;;;;;5.03;93.39;98137.63;4858575;29;20025;-90
2021/05/09 01:49:48;;;;;;;8.68;4.97;;;;;;;4.91;93.58;98120.31;4854148;29;20033;-90
2021/05/09 01:52:14;;;;;;;9.70;5.10;;;;;;;4.88;94.25;98131.00;4868125;29;20033;-89
2021/05/09 01:54:40;;;;;;;7.93;5.30;;;;;;;4.95;93.67;98141.41;4855523;29;20025;-90
2021/05/09 01:57:05;;;;;;;7.75;4.65;;;;;;;4.91;92.59;98130.03;4858785;29;20102;-90
2021/05/09 01:59:31;;;;;;;8.75;5.05;;;;;;;4.93;92.17;98144.97;4867310;29;20036;-89
2021/05/09 02:01:57;;;;;;;8.10;4.75;;;;;;;4.78;93.28;98126.00;4857196;29;20066;-90
2021/05/09 02:04:23;;;;;;;9.05;5.07;;;;;;;4.82;93.88;98131.19;4854843;29;20037;-90
2021/05/09 02:06:49;;;;;;;8.48;5.30;;;;;;;4.95;93.01;98146.72;4853124;29;20044;-89
2021/05/09 02:09:14;;;;;;;17.33;5.25;;;;;;;4.88;93.71;98149.56;4856880;29;20461;-89
2021/05/09 02:11:40;;;;;;;10.95;5.70;;;;;;;4.77;94.34;98134.84;4870221;29;20020;-89
2021/05/09 02:14:05;;;;;;;12.35;5.72;;;;;;;4.83;95.06;98142.63;4880314;29;20032;-89
2021/05/09 02:16:31;;;;;;;15.25;6.15;;;;;;;4.76;95.08;98123.41;4866490;29;20076;-89
2021/05/09 02:18:56;;;;;;;12.00;5.72;;;;;;;4.95;95.28;98157.31;4854936;29;20152;-90
2021/05/09 02:21:22;;;;;;;10.40;5.38;;;;;;;4.85;95.73;98146.13;4863458;29;20036;-89
2021/05/09 02:23:47;;;;;;;11.85;6.97;;;;;;;4.91;95.36;98161.84;4866475;29;20033;-88
2021/05/09 02:26:13;;;;;;;13.73;7.53;;;;;;;4.85;95.78;98162.91;4856093;29;20039;-88
2021/05/09 02:28:39;;;;;;;10.48;6.60;;;;;;;4.80;96.20;98166.56;4876331;29;20041;-89
2021/05/09 02:31:04;;;;;;;12.85;6.35;;;;;;;4.75;96.88;98171.13;4855247;29;20481;-89
2021/05/09 02:33:30;;;;;;;13.18;6.20;;;;;;;4.63;97.67;98159.13;4849687;29;20445;-89
2021/05/09 02:35:55;;;;;;;33.38;18.20;;;;;;;4.57;96.71;98155.78;4857585;29;20032;-89
2021/05/09 02:38:21;;;;;;;69.20;41.45;;;;;;;4.50;97.59;98162.16;4876344;29;20040;-90
2021/05/09 02:40:46;;;;;;;62.05;41.70;;;;;;;4.51;97.37;98177.13;4869814;29;20173;-89
2021/05/09 02:43:18;;;;;;;68.57;40.42;;;;;;;4.43;97.37;98158.78;4868959;29;20095;-90
2021/05/09 02:45:44;;;;;;;31.03;17.87;;;;;;;4.53;96.79;98191.19;4847823;29;20547;-89
2021/05/09 02:48:11;;;;;;;23.88;11.25;;;;;;;4.46;97.03;98190.50;4864367;29;20040;-89
2021/05/09 02:50:37;;;;;;;14.57;7.22;;;;;;;4.38;96.72;98185.41;4854153;29;20029;-89
2021/05/09 02:53:02;;;;;;;15.88;7.63;;;;;;;4.37;97.78;98180.16;4872283;29;20029;-89
2021/05/09 02:55:28;;;;;;;12.30;6.25;;;;;;;4.29;97.69;98176.84;4864481;29;20504;-88
2021/05/09 02:57:53;;;;;;;25.25;6.57;;;;;;;4.26;98.69;98180.47;4859164;29;20518;-88
2021/05/09 03:00:19;;;;;;;11.18;5.72;;;;;;;4.19;99.44;98193.88;4854373;29;20051;-88
2021/05/09 03:02:45;;;;;;;14.77;5.88;;;;;;;4.24;99.09;98186.72;4864968;29;20421;-88
2021/05/09 03:05:11;;;;;;;16.23;6.68;;;;;;;4.38;98.63;98200.44;4867418;29;20047;-88
2021/05/09 03:07:36;;;;;;;9.00;5.63;;;;;;;4.25;97.95;98188.44;4862139;29;20036;-88
2021/05/09 03:10:03;;;;;;;8.80;4.75;;;;;;;4.19;97.26;98196.53;4858219;29;20058;-88
2021/05/09 03:12:29;;;;;;;12.27;5.50;;;;;;;4.28;96.98;98213.06;4857243;29;20067;-88
2021/05/09 03:14:55;;;;;;;11.85;5.18;;;;;;;4.29;96.12;98198.03;4858946;29;20072;-88
2021/05/09 03:17:20;;;;;;;12.98;5.55;;;;;;;4.35;96.24;98204.03;4855894;29;20469;-88
2021/05/09 03:19:46;;;;;;;10.88;5.07;;;;;;;4.38;96.34;98211.91;4853155;29;20029;-88
2021/05/09 03:22:11;;;;;;;9.32;5.10;;;;;;;4.36;96.64;98215.50;4860316;29;20028;-88
2021/05/09 03:24:37;;;;;;;13.70;4.85;;;;;;;4.42;96.75;98220.63;4849738;29;20033;-86
2021/05/09 03:27:03;;;;;;;22.30;5.35;;;;;;;4.36;96.44;98205.78;4860471;29;20202;-88
2021/05/09 03:29:28;;;;;;;11.07;4.95;;;;;;;4.51;96.17;98220.41;4865158;29;20044;-87
2021/05/09 03:31:54;;;;;;;7.13;4.97;;;;;;;4.63;96.15;98237.72;4874429;29;20512;-87
2021/05/09 03:34:20;;;;;;;13.73;5.82;;;;;;;4.61;96.20;98234.25;4865718;29;20514;-87
2021/05/09 03:36:45;;;;;;;18.67;10.63;;;;;;;4.63;96.28;98235.94;4849727;29;20037;-87
2021/05/09 03:39:11;;;;;;;24.83;11.07;;;;;;;4.51;96.55;98236.28;4872830;29;20040;-77
2021/05/09 03:41:36;;;;;;;33.38;23.33;;;;;;;4.63;96.44;98246.53;4868283;29;20032;-76
2021/05/09 03:44:02;;;;;;;24.38;16.02;;;;;;;4.50;97.31;98245.13;4873224;29;20067;-88
2021/05/09 03:46:28;;;;;;;29.88;20.05;;;;;;;4.55;96.43;98235.31;4858378;29;20039;-87
2021/05/09 03:48:53;;;;;;;27.60;18.00;;;;;;;4.65;95.55;98244.72;4874381;29;20040;-87
2021/05/09 03:51:19;;;;;;;27.70;19.65;;;;;;;4.57;96.66;98222.88;4859625;29;20028;-88
2021/05/09 03:53:44;;;;;;;37.72;20.45;;;;;;;4.68;96.11;98243.75;4856731;29;20072;-88
2021/05/09 03:56:10;;;;;;;26.25;17.55;;;;;;;4.65;95.56;98241.19;4860164;29;20032;-88
2021/05/09 03:58:35;;;;;;;31.33;18.77;;;;;;;4.70;96.28;98241.97;4869780;29;20041;-88
2021/05/09 04:01:01;;;;;;;27.52;15.13;;;;;;;4.78;96.06;98245.25;4857099;29;20033;-87
2021/05/09 04:03:29;;;;;;;24.38;13.02;;;;;;;4.78;95.55;98250.56;4859186;29;20037;-87
2021/05/09 04:05:55;;;;;;;17.23;11.57;;;;;;;4.85;95.06;98260.94;4870454;29;20093;-87
2021/05/09 04:08:25;;;;;;;24.70;12.15;;;;;;;4.93;95.32;98263.38;4857790;29;20028;-87
2021/05/09 04:10:55;;;;;;;16.98;9.73;;;;;;;4.91;93.56;98257.25;4855304;29;20037;-86
2021/05/09 04:13:21;;;;;;;15.75;10.43;;;;;;;4.98;93.72;98258.84;4864648;29;20021;-87
2021/05/09 04:15:47;;;;;;;17.15;11.45;;;;;;;5.05;93.41;98259.50;4846602;29;20052;-87
2021/05/09 04:18:13;;;;;;;16.80;10.13;;;;;;;5.43;91.41;98235.38;4849933;29;20033;-87
2021/05/09 04:20:39;;;;;;;23.60;9.45;;;;;;;6.18;87.99;98268.41;4851469;29;20394;-87
2021/05/09 04:23:14;;;;;;;16.85;10.50;;;;;;;7.38;81.21;98273.00;4854993;29;20099;-88
2021/05/09 04:25:51;;;;;;;20.30;12.13;;;;;;;8.56;74.27;98274.44;4857173;29;20036;-87
2021/05/09 04:28:17;;;;;;;25.98;15.63;;;;;;;8.90;70.91;98265.84;4855146;29;20032;-87
2021/05/09 04:30:43;;;;;;;27.45;16.20;;;;;;;8.29;73.10;98264.06;4855448;29;20025;-87
2021/05/09 04:33:09;;;;;;;24.25;10.80;;;;;;;7.78;75.28;98270.53;4860523;29;20055;-88
2021/05/09 04:35:35;;;;;;;22.85;11.65;;;;;;;7.45;77.80;98279.81;4850077;29;20481;-88
2021/05/09 04:38:04;;;;;;;28.08;16.40;;;;;;;7.04;80.53;98263.56;4848208;29;20084;-88
2021/05/09 04:41:05;;;;;;;26.77;16.55;;;;;;;6.84;83.15;98255.47;4850469;29;20413;-88
2021/05/09 04:43:59;;;;;;;;;;;;;;;;;;;;;
2021/05/09 04:46:25;;;;;;;26.63;15.70;;;;;;;6.85;85.80;98251.91;4876290;29;20043;-87
2021/05/09 04:48:50;;;;;;;23.13;13.43;;;;;;;6.95;85.41;98277.22;4859880;29;20115;-87
2021/05/09 04:51:16;;;;;;;23.63;12.73;;;;;;;6.93;85.33;98279.06;4871144;29;20041;-87
2021/05/09 04:53:42;;;;;;;18.85;12.30;;;;;;;6.85;84.93;98257.22;4862098;29;20415;-88
2021/05/09 04:56:08;;;;;;;18.92;10.80;;;;;;;6.97;84.35;98262.09;4857695;29;20029;-89
2021/05/09 04:58:38;;;;;;;17.40;10.55;;;;;;;7.19;83.82;98279.91;4881733;29;20085;-87
2021/05/09 05:01:09;;;;;;;19.25;9.52;;;;;;;7.25;82.32;98279.69;4855781;29;20062;-87
2021/05/09 05:03:35;;;;;;;17.45;9.25;;;;;;;7.41;82.17;98283.53;4855693;29;20123;-87
2021/05/09 05:06:01;;;;;;;14.85;8.70;;;;;;;7.50;81.75;98272.53;4876719;29;20120;-89
2021/05/09 05:08:28;;;;;;;15.77;7.80;;;;;;;7.71;81.16;98277.03;4847697;29;20505;-88
2021/05/09 05:10:54;;;;;;;11.05;6.25;;;;;;;7.96;79.94;98280.47;4861341;29;20060;-86
2021/05/09 05:13:24;;;;;;;11.20;5.13;;;;;;;8.34;75.93;98283.38;4869367;29;20033;-86
2021/05/09 05:16:01;;;;;;;8.02;4.72;;;;;;;9.10;72.87;98271.19;4880758;29;20039;-88
2021/05/09 05:18:27;;;;;;;9.65;4.78;;;;;;;9.74;70.86;98295.81;4854953;29;20394;-87
2021/05/09 05:20:55;;;;;;;10.43;4.95;;;;;;;12.26;62.04;98307.72;4849323;29;20083;-88
2021/05/09 05:23:22;;;;;;;10.00;5.10;;;;;;;15.05;50.95;98319.88;4856192;29;20446;-88
2021/05/09 05:25:48;;;;;;;10.90;4.70;;;;;;;17.11;44.09;98318.47;4849713;29;20516;-89
2021/05/09 05:28:14;;;;;;;9.98;4.97;;;;;;;18.63;39.47;98313.56;4854937;29;20040;-87
2021/05/09 05:30:39;;;;;;;12.50;6.10;;;;;;;19.42;37.64;98321.31;4855013;29;20436;-89
2021/05/09 05:33:06;;;;;;;8.07;5.20;;;;;;;21.16;35.02;98328.47;4866822;29;20416;-89
2021/05/09 05:35:31;;;;;;;17.75;5.85;;;;;;;22.31;32.79;98328.31;4858240;29;20043;-89
2021/05/09 05:37:57;;;;;;;16.00;5.45;;;;;;;22.85;31.28;98320.22;4860625;29;20482;-88
2021/05/09 05:40:23;;;;;;;12.27;4.88;;;;;;;23.77;30.10;98315.34;4859662;29;20035;-88
2021/05/09 05:42:49;;;;;;;12.00;5.32;;;;;;;24.04;28.91;98317.09;4861071;29;20045;-89
2021/05/09 05:45:15;;;;;;;12.88;6.20;;;;;;;24.35;28.22;98320.22;4856965;29;20097;-88
2021/05/09 05:47:41;;;;;;;15.82;7.47;;;;;;;24.95;27.65;98323.78;4873974;29;20044;-86
2021/05/09 05:50:08;;;;;;;11.18;6.80;;;;;;;25.62;26.38;98317.28;4864522;29;20037;-88
2021/05/09 05:52:33;;;;;;;12.43;5.60;;;;;;;26.20;25.06;98311.59;4865135;29;20072;-86
2021/05/09 05:54:59;;;;;;;11.50;5.90;;;;;;;26.45;24.60;98307.78;4869037;29;20033;-88
2021/05/09 05:57:25;;;;;;;9.35;5.65;;;;;;;26.79;24.33;98316.56;4860075;29;20417;-89
2021/05/09 05:59:50;;;;;;;10.82;4.65;;;;;;;26.92;23.92;98316.00;4851651;29;20469;-87
2021/05/09 06:02:16;;;;;;;8.85;3.90;;;;;;;27.50;23.32;98317.44;4853839;29;20104;-85
2021/05/09 06:04:42;;;;;;;9.13;5.10;;;;;;;27.90;22.85;98314.38;4866424;29;20420;-87
2021/05/09 06:07:09;;;;;;;13.90;7.80;;;;;;;26.71;24.12;98307.50;4856239;29;20040;-88
2021/05/09 06:09:34;;;;;;;16.63;5.85;;;;;;;26.80;24.46;98320.19;4858221;29;20059;-88
2021/05/09 06:12:00;;;;;;;10.60;6.88;;;;;;;26.23;24.73;98317.59;4856619;29;20068;-85
2021/05/09 06:14:26;;;;;;;8.38;5.93;;;;;;;26.00;25.21;98322.03;4865201;29;20048;-84
2021/05/09 06:16:52;;;;;;;14.75;9.43;;;;;;;24.96;27.02;98337.28;4879463;29;20037;-86
2021/05/09 06:19:17;;;;;;;9.35;5.25;;;;;;;26.12;25.56;98320.66;4877846;29;20068;-88
2021/05/09 06:21:48;;;;;;;10.77;5.43;;;;;;;26.14;25.06;98313.13;4895290;29;20112;-84
2021/05/09 06:24:14;;;;;;;6.60;5.20;;;;;;;25.50;26.17;98335.06;4869865;29;20507;-77
2021/05/09 06:26:40;;;;;;;10.13;5.30;;;;;;;26.44;25.10;98329.91;4871623;29;20108;-76
2021/05/09 06:29:05;;;;;;;8.32;5.00;;;;;;;27.75;24.05;98329.94;4858605;29;20060;-80
2021/05/09 06:31:31;;;;;;;15.52;4.45;;;;;;;27.97;23.90;98334.59;4865070;29;20040;-81
2021/05/09 06:33:57;;;;;;;9.75;4.57;;;;;;;29.18;22.55;98327.78;4854034;29;20099;-79
2021/05/09 06:36:22;;;;;;;9.70;4.70;;;;;;;27.92;22.99;98317.78;4854897;29;20502;-79
2021/05/09 06:38:48;;;;;;;11.02;4.55;;;;;;;27.37;22.84;98326.25;4855552;29;20898;-78
2021/05/09 06:41:14;;;;;;;8.23;4.07;;;;;;;27.53;23.18;98328.06;4852806;29;20067;-77
2021/05/09 06:43:40;;;;;;;11.98;4.72;;;;;;;27.94;23.30;98330.31;4866472;29;20050;-78
2021/05/09 06:46:05;;;;;;;9.23;4.68;;;;;;;26.71;24.31;98321.22;4825062;29;20116;-77
2021/05/09 06:48:31;;;;;;;8.13;4.22;;;;;;;26.79;24.05;98326.72;4845775;29;20028;-77
2021/05/09 06:50:57;;;;;;;5.72;3.60;;;;;;;27.66;22.42;98331.06;4859142;29;20417;-76
2021/05/09 06:53:23;;;;;;;13.82;8.45;;;;;;;28.21;21.33;98309.63;4873851;29;20026;-77
2021/05/09 06:55:50;;;;;;;16.73;8.23;;;;;;;28.43;21.83;98316.97;4851114;29;20139;-77
2021/05/09 06:58:18;;;;;;;9.52;3.45;;;;;;;28.46;21.87;98316.59;4840865;29;20025;-77
2021/05/09 07:00:43;;;;;;;6.55;3.53;;;;;;;28.25;21.82;98313.72;4873920;29;20028;-77
2021/05/09 07:03:10;;;;;;;7.93;4.47;;;;;;;27.37;23.10;98334.50;4854918;29;20144;-77
2021/05/09 07:05:36;;;;;;;10.38;4.07;;;;;;;26.84;22.89;98324.31;4858152;29;20112;-78
2021/05/09 07:08:02;;;;;;;7.78;3.90;;;;;;;25.84;23.99;98316.59;4839081;29;20033;-76
2021/05/09 07:10:28;;;;;;;15.13;7.07;;;;;;;26.09;23.84;98317.41;4864497;29;20040;-75
2021/05/09 07:12:54;;;;;;;6.90;4.38;;;;;;;26.51;23.34;98326.28;4853254;29;20060;-77
2021/05/09 07:15:29;;;;;;;7.38;4.13;;;;;;;26.86;23.38;98319.47;4845577;29;20562;-76
2021/05/09 07:17:56;;;;;;;8.15;3.97;;;;;;;27.43;22.37;98339.31;4859764;29;20462;-77
2021/05/09 07:20:21;;;;;;;11.48;4.18;;;;;;;28.49;21.72;98331.88;4859488;29;20029;-78
2021/05/09 07:22:52;;;;;;;6.68;4.00;;;;;;;28.31;22.01;98323.97;4836210;29;20048;-77
2021/05/09 07:25:19;;;;;;;8.15;4.10;;;;;;;28.73;20.31;98328.03;4875941;29;20025;-76
2021/05/09 07:27:44;;;;;;;63.05;8.30;;;;;;;29.75;19.68;98325.06;4843199;29;20028;-76
2021/05/09 07:30:11;;;;;;;11.57;4.20;;;;;;;29.89;19.77;98320.56;4843499;29;20405;-77
2021/05/09 07:32:36;;;;;;;35.80;8.43;;;;;;;28.92;20.03;98316.41;4843461;29;20582;-77
2021/05/09 07:35:02;;;;;;;8.63;2.83;;;;;;;28.60;20.81;98314.03;4843607;29;20024;-76
2021/05/09 07:37:27;;;;;;;8.18;4.00;;;;;;;29.63;19.09;98309.22;4837641;29;20036;-77
2021/05/09 07:39:53;;;;;;;21.60;12.38;;;;;;;30.08;19.53;98298.66;4858656;29;20429;-77
2021/05/09 07:42:19;;;;;;;13.20;3.42;;;;;;;30.12;20.31;98314.81;4859055;29;20056;-77
2021/05/09 07:44:44;;;;;;;32.97;21.88;;;;;;;30.12;19.77;98295.50;4856534;29;20053;-77
2021/05/09 07:47:11;;;;;;;5.45;3.33;;;;;;;29.92;18.99;98298.09;4874137;29;20040;-77
2021/05/09 07:49:36;;;;;;;14.13;3.38;;;;;;;29.76;19.00;98284.53;4871651;29;20068;-77
2021/05/09 07:52:02;;;;;;;10.93;3.45;;;;;;;30.65;19.38;98297.59;4858715;29;20061;-77
2021/05/09 07:54:28;;;;;;;5.75;3.08;;;;;;;30.80;19.76;98291.94;4858145;29;20043;-77
2021/05/09 07:56:53;;;;;;;5.40;3.22;;;;;;;30.68;18.19;98288.91;4858327;29;20041;-79
2021/05/09 07:59:19;;;;;;;9.50;4.13;;;;;;;31.42;18.18;98289.88;4870720;29;20036;-79
2021/05/09 08:01:44;;;;;;;8.88;3.28;;;;;;;31.83;18.65;98295.31;4854378;29;20095;-78
2021/05/09 08:04:10;;;;;;;6.13;3.63;;;;;;;32.35;17.10;98293.63;4858384;29;20433;-77
2021/05/09 08:06:35;;;;;;;9.07;2.85;;;;;;;31.89;17.59;98283.41;4872518;29;20416;-77
2021/05/09 08:09:01;;;;;;;4.90;2.83;;;;;;;31.71;17.41;98285.94;4890398;29;20528;-77
2021/05/09 08:11:26;;;;;;;6.07;3.55;;;;;;;30.07;18.93;98274.88;4843326;29;20039;-79
2021/05/09 08:13:52;;;;;;;4.00;2.38;;;;;;;29.65;18.20;98268.50;4859386;29;20037;-78
2021/05/09 08:16:18;;;;;;;5.55;2.60;;;;;;;30.73;18.85;98271.72;4871122;29;20091;-78
2021/05/09 08:18:43;;;;;;;6.20;3.03;;;;;;;31.22;18.07;98279.81;4862816;29;20504;-78
2021/05/09 08:21:09;;;;;;;4.35;2.78;;;;;;;31.78;18.28;98272.13;4876964;29;20172;-79
2021/05/09 08:23:37;;;;;;;5.72;2.30;;;;;;;31.76;17.92;98283.38;4855713;29;20124;-79
2021/05/09 08:26:03;;;;;;;3.92;2.50;;;;;;;31.64;17.14;98263.78;4869241;29;20075;-78
2021/05/09 08:28:29;;;;;;;3.40;2.40;;;;;;;30.99;17.91;98266.34;4876786;29;20465;-78
2021/05/09 08:30:55;;;;;;;5.78;2.80;;;;;;;31.40;18.28;98278.19;4876590;29;20037;-79
2021/05/09 08:33:20;;;;;;;7.28;2.60;;;;;;;31.87;17.48;98268.91;4860187;29;20028;-79
2021/05/09 08:35:46;;;;;;;13.90;4.03;;;;;;;32.48;17.68;98274.22;4858098;29;20045;-79
2021/05/09 08:38:11;;;;;;;3.10;2.40;;;;;;;32.73;17.18;98269.72;4873156;29;20032;-78
2021/05/09 08:40:37;;;;;;;7.43;3.15;;;;;;;30.94;18.08;98257.78;4857993;29;20108;-78
2021/05/09 08:43:02;;;;;;;9.30;4.15;;;;;;;31.77;19.66;98276.78;4857556;29;20044;-78
2021/05/09 08:45:28;;;;;;;13.43;6.18;;;;;;;32.11;17.52;98270.22;4867228;29;20032;-78
2021/05/09 08:47:55;;;;;;;5.10;2.80;;;;;;;32.51;17.39;98280.19;4876497;29;20489;-78
2021/05/09 08:50:24;;;;;;;4.55;2.92;;;;;;;32.53;17.58;98278.06;4876676;29;20051;-78
2021/05/09 08:52:50;;;;;;;8.05;3.03;;;;;;;32.93;16.57;98277.97;4861220;29;20036;-76
2021/05/09 08:55:23;;;;;;;4.60;2.28;;;;;;;30.99;18.43;98258.03;4876188;29;20154;-78
2021/05/09 08:57:49;;;;;;;4.88;2.10;;;;;;;32.17;16.60;98261.06;4860968;29;20052;-77
2021/05/09 09:00:16;;;;;;;4.88;2.00;;;;;;;31.87;16.27;98251.47;4865793;29;20036;-77
2021/05/09 09:02:43;;;;;;;9.30;2.50;;;;;;;32.50;17.91;98272.94;4857856;29;20063;-79
2021/05/09 09:05:10;;;;;;;6.65;4.47;;;;;;;32.55;17.02;98266.72;4843341;29;20509;-78
2021/05/09 09:07:50;;;;;;;7.60;2.67;;;;;;;32.02;17.26;98247.41;4861102;29;20129;-78
2021/05/09 09:10:40;;;;;;;4.13;2.35;;;;;;;29.18;19.37;98239.56;4876708;29;20092;-77
2021/05/09 09:13:32;;;;;;;5.72;2.50;;;;;;;30.58;18.20;98258.00;4880122;29;20037;-78
2021/05/09 09:16:00;;;;;;;4.35;2.45;;;;;;;31.03;18.33;98262.97;4880151;29;20040;-78
2021/05/09 09:18:38;;;;;;;4.97;2.30;;;;;;;31.32;17.64;98247.94;4864122;29;20523;-78
2021/05/09 09:21:29;;;;;;;5.85;2.25;;;;;;;31.22;17.48;98238.34;4864260;29;20040;-78
2021/05/09 09:24:05;;;;;;;4.60;2.20;;;;;;;32.19;17.05;98239.53;4864110;29;20429;-76
2021/05/09 09:26:47;;;;;;;8.40;2.83;;;;;;;32.37;17.20;98242.47;4879934;29;20108;-77
2021/05/09 09:29:23;;;;;;;9.30;2.58;;;;;;;32.56;17.57;98225.00;4880076;29;20417;-78
2021/05/09 09:31:56;;;;;;;3.28;2.10;;;;;;;32.86;16.77;98238.31;4871642;29;20408;-79
2021/05/09 09:37:10;;;;;;;3.88;1.98;;;;;;;32.98;17.62;98239.34;4882002;29;20107;-76
2021/05/09 09:39:54;;;;;;;4.32;1.95;;;;;;;33.46;16.45;98237.84;4879200;29;20029;-76
2021/05/09 09:42:37;;;;;;;5.03;3.63;;;;;;;33.37;16.14;98236.41;4879347;29;20056;-76
2021/05/09 09:45:23;;;;;;;3.33;2.97;;;;;;;32.57;16.54;98225.84;4895637;29;20420;-76
2021/05/09 09:47:52;;;;;;;4.28;2.90;;;;;;;32.31;16.62;98226.72;4863656;29;20036;-76
2021/05/09 09:50:39;;;;;;;3.25;1.90;;;;;;;32.90;17.77;98242.34;4895879;29;20036;-78
2021/05/09 09:53:29;;;;;;;2.40;1.65;;;;;;;33.50;15.97;98227.13;4879215;29;20027;-76
2021/05/09 09:56:11;;;;;;;2.65;1.70;;;;;;;33.25;16.66;98232.63;4879207;29;20036;-76
2021/05/09 09:58:47;;;;;;;3.53;1.70;;;;;;;34.01;15.41;98225.03;4875607;29;20029;-75
2021/05/09 10:01:19;;;;;;;6.97;3.15;;;;;;;33.52;16.73;98230.53;4879043;29;20031;-76
2021/05/09 10:03:46;;;;;;;4.32;2.80;;;;;;;34.41;16.36;98219.97;4879033;29;20123;-75
2021/05/09 10:06:12;;;;;;;5.38;2.45;;;;;;;34.48;16.41;98215.22;4869945;29;20414;-75
2021/05/09 10:08:37;;;;;;;9.15;2.85;;;;;;;34.64;16.11;98220.16;4881242;29;20044;-77
2021/05/09 10:11:05;;;;;;;3.63;1.63;;;;;;;34.01;15.54;98207.53;4884483;29;20074;-76
2021/05/09 10:13:31;;;;;;;9.85;3.33;;;;;;;34.12;16.96;98212.34;4860481;29;20059;-76
2021/05/09 10:15:58;;;;;;;4.22;2.40;;;;;;;33.01;16.99;98223.09;4859275;29;20105;-76
2021/05/09 10:18:25;;;;;;;5.40;2.83;;;;;;;33.42;16.38;98219.91;4843313;29;20049;-76
2021/05/09 10:20:53;;;;;;;3.55;2.72;;;;;;;33.83;17.22;98218.59;4847141;29;20043;-77
2021/05/09 10:23:19;;;;;;;6.78;2.17;;;;;;;33.94;17.25;98204.81;4851734;29;20043;-77
2021/05/09 10:25:56;;;;;;;5.25;1.50;;;;;;;34.77;15.50;98203.34;4881295;29;20025;-77
2021/05/09 10:28:37;;;;;;;4.28;2.20;;;;;;;34.26;15.29;98197.28;4875770;29;20025;-78
2021/05/09 10:31:03;;;;;;;6.70;2.63;;;;;;;33.99;16.02;98204.13;4850223;29;20069;-77
2021/05/09 10:33:38;;;;;;;2.42;1.52;;;;;;;33.84;15.85;98209.19;4874829;29;20051;-78
2021/05/09 10:36:04;;;;;;;3.88;1.70;;;;;;;34.19;16.03;98199.25;4862603;29;20048;-77
2021/05/09 10:38:30;;;;;;;6.20;3.03;;;;;;;34.78;14.92;98196.69;4862504;29;20035;-75
2021/05/09 10:41:09;;;;;;;7.22;2.63;;;;;;;35.46;15.37;98195.56;4862231;29;20404;-77
2021/05/09 10:43:35;;;;;;;3.28;1.88;;;;;;;36.40;15.32;98209.41;4846745;29;20485;-76
2021/05/09 10:46:01;;;;;;;2.05;1.30;;;;;;;36.91;13.84;98195.56;4846737;29;20119;-77
2021/05/09 10:48:32;;;;;;;3.25;1.90;;;;;;;34.96;14.31;98179.13;4875745;29;20037;-77
2021/05/09 10:51:03;;;;;;;5.38;1.98;;;;;;;34.67;15.84;98183.56;4881300;29;20095;-76
2021/05/09 10:53:38;;;;;;;6.03;2.72;;;;;;;36.27;13.71;98187.38;4897698;29;20058;-77
2021/05/09 10:56:08;;;;;;;2.85;1.33;;;;;;;36.37;14.31;98176.44;4880632;29;20032;-76
2021/05/09 10:58:45;;;;;;;4.07;2.25;;;;;;;35.46;14.11;98171.38;4880873;29;20032;-76
2021/05/09 11:01:32;;;;;;;2.35;1.83;;;;;;;33.96;14.75;98157.38;4865180;29;20025;-75
2021/05/09 11:04:05;;;;;;;5.05;1.42;;;;;;;34.47;15.61;98171.81;4896995;29;20044;-76
2021/05/09 11:06:45;;;;;;;1.50;1.40;;;;;;;34.46;16.11;98170.09;4866911;29;20565;-75
2021/05/09 11:09:14;;;;;;;2.00;1.50;;;;;;;35.37;13.89;98167.22;4862176;29;20500;-75
2021/05/09 11:11:39;;;;;;;5.70;1.88;;;;;;;34.61;15.15;98162.25;4861751;29;20024;-76
2021/05/09 11:14:07;;;;;;;6.75;2.80;;;;;;;33.61;14.90;98148.72;4878402;29;20524;-75
2021/05/09 11:16:37;;;;;;;2.00;1.38;;;;;;;33.96;16.99;98149.91;4878506;29;20096;-75
2021/05/09 11:19:13;;;;;;;4.70;2.13;;;;;;;34.47;16.34;98157.06;4861516;29;20064;-75
2021/05/09 11:21:47;;;;;;;3.22;1.60;;;;;;;35.77;15.02;98159.97;4892810;29;20039;-75
2021/05/09 11:24:21;;;;;;;3.28;2.97;;;;;;;35.20;14.89;98142.00;4864686;29;20045;-76
2021/05/09 11:26:52;;;;;;;3.20;2.63;;;;;;;31.82;17.11;98138.59;4880347;29;20028;-76
2021/05/09 11:29:20;;;;;;;2.10;1.50;;;;;;;32.79;16.45;98141.34;4896564;29;20397;-76
2021/05/09 11:31:50;;;;;;;7.90;2.92;;;;;;;34.48;15.94;98144.88;4879960;29;20132;-76
2021/05/09 11:34:17;;;;;;;2.55;1.92;;;;;;;35.64;14.92;98149.03;4864603;29;20021;-76
2021/05/09 11:36:48;;;;;;;5.57;1.85;;;;;;;35.56;15.32;98140.16;4880065;29;20029;-75
2021/05/09 11:39:18;;;;;;;2.03;1.45;;;;;;;35.30;14.24;98130.28;4880148;29;20030;-76